createdAt,value
2023-01-15T02:57:46.127Z,101306.08
2023-01-15T03:00:15.512Z,101302.31
2023-01-15T03:02:48.414Z,101297.53
2023-01-15T03:05:21.242Z,101298.27
2023-01-15T03:07:51.436Z,101304.12
2023-01-15T03:10:18.930Z,101299.88
2023-01-15T03:13:03.447Z,101297.25
2023-01-15T03:16:00.926Z,101298.95
2023-01-15T03:18:29.476Z,101297.21
2023-01-15T03:21:00.990Z,101295.96
2023-01-15T03:23:27.824Z,101292.49
2023-01-15T03:25:54.785Z,101286.39
2023-01-15T03:28:23.566Z,101286.24
2023-01-15T03:30:50.528Z,101291.05
2023-01-15T03:33:17.611Z,101293.05
2023-01-15T03:35:44.464Z,101297.50
2023-01-15T03:38:12.144Z,101305.23
2023-01-15T03:40:40.258Z,101304.42
2023-01-15T03:43:29.435Z,101301.41
2023-01-15T03:45:58.433Z,101298.68
2023-01-15T03:48:34.710Z,101290.36
2023-01-15T03:51:04.932Z,101293.55
2023-01-15T03:53:33.847Z,101292.98
2023-01-15T03:56:03.978Z,101289.88
2023-01-15T06:36:44.868Z,101274.05
2023-01-15T06:39:11.941Z,101271.23
2023-01-15T06:41:57.549Z,101268.53
2023-01-15T06:44:43.218Z,101267.45
2023-01-15T06:47:21.508Z,101268.45
2023-01-15T06:49:54.132Z,101261.50
2023-01-15T06:52:22.074Z,101257.15
2023-01-15T06:54:49.074Z,101256.28
2023-01-15T11:00:22.569Z,101092.91
2023-01-15T11:03:21.141Z,101081.02
2023-01-15T11:05:48.256Z,101079.19
2023-01-15T11:12:01.963Z,101075.52
2023-01-15T11:15:05.803Z,101068.52
2023-01-15T11:17:54.978Z,101062.08
2023-01-15T11:20:29.424Z,101052.00
2023-01-15T11:23:16.511Z,101048.48
2023-01-15T11:25:54.541Z,101048.41
2023-01-15T11:28:40.619Z,101051.27
2023-01-15T11:31:08.326Z,101047.56
2023-01-15T11:33:35.654Z,101041.81
2023-01-15T11:36:07.849Z,101030.79
2023-01-15T11:38:45.619Z,101027.30
2023-01-15T11:41:50.252Z,101028.85
2023-01-15T11:44:37.952Z,101027.61
2023-01-15T11:47:28.300Z,101022.38
2023-01-15T11:50:14.152Z,101019.08
2023-01-15T15:17:40.077Z,100928.45
2023-01-15T15:20:27.684Z,100922.63
2023-01-15T15:22:56.925Z,100922.92
2023-01-15T15:25:25.924Z,100920.77
2023-01-15T15:28:06.577Z,100920.70
2023-01-15T15:30:35.001Z,100924.50
2023-01-15T15:33:04.536Z,100925.13
2023-01-15T15:35:32.596Z,100922.06
2023-01-15T15:38:02.951Z,100923.02
2023-01-15T15:40:38.993Z,100917.55
2023-01-15T15:43:35.370Z,100921.59
2023-01-15T15:46:21.012Z,100916.46
2023-01-15T15:48:53.763Z,100917.73
2023-01-15T15:51:40.897Z,100921.31
2023-01-15T15:54:18.133Z,100923.80
2023-01-15T15:57:02.100Z,100922.77
2023-01-15T15:59:30.579Z,100925.45
2023-01-15T16:01:59.210Z,100925.46
2023-01-15T16:04:26.229Z,100929.05
2023-01-15T16:06:53.229Z,100930.79
2023-01-15T16:09:23.874Z,100925.38
2023-01-15T16:11:53.986Z,100922.17
2023-01-15T16:14:21.051Z,100919.86
2023-01-15T16:16:48.432Z,100921.05
2023-01-15T16:19:21.890Z,100916.10
2023-01-15T16:21:49.057Z,100920.31
2023-01-15T16:24:27.321Z,100925.29
2023-01-15T16:26:57.532Z,100924.31
2023-01-15T16:29:29.596Z,100922.29
2023-01-15T16:31:57.238Z,100926.48
2023-01-15T16:34:25.501Z,100924.16
2023-01-15T16:36:52.453Z,100923.59
2023-01-15T16:39:44.236Z,100922.33
2023-01-15T16:42:27.795Z,100919.88
2023-01-15T16:44:57.474Z,100920.83
2023-01-15T16:47:32.325Z,100917.11
2023-01-15T16:50:24.408Z,100906.85
2023-01-15T16:52:52.353Z,100908.98
2023-01-15T16:55:34.911Z,100902.65
2023-01-15T16:58:22.062Z,100902.04
2023-01-15T17:00:51.226Z,100889.45
2023-01-15T19:20:40.063Z,100777.23
2023-01-15T19:23:07.405Z,100766.91
2023-01-15T19:25:39.940Z,100767.92
2023-01-15T19:28:08.026Z,100772.34
2023-01-15T19:30:37.299Z,100769.72
2023-01-15T19:33:04.530Z,100769.70
2023-01-15T19:35:31.780Z,100772.15
2023-01-15T19:37:59.268Z,100766.89
2023-01-15T19:40:30.667Z,100754.39
2023-01-15T19:43:16.475Z,100752.42
2023-01-15T19:46:03.058Z,100750.52
2023-01-15T19:48:48.783Z,100748.46
